Bright Ocean — HOGQ — position and weather

sailwx.info

Track history (hours):
 
Tides and Currents Weather Stations Pressure Air Temp Water Temp Dewpoint Dewpoint Depression Visibility Wind Speed Wind Dir Waves Ship Positions

Bright Ocean

Last reported at 2015-May-20 12:29 UTC. Time now 2015-May-23 05:48 UTC.
Position N 36°22' E 141°35'.

Length 178 m; draft 6.5 m.

Type: Cargo ship. MMSI: 373816000.

Date/timePositionNaut miles runAvg speedWind from/ knotsBaromVisibWave heightAir tempDewpointWater temp
2015-May-20 12:29N 36°22' E 141°35'1414.6
2015-May-20 11:33N 36°14' E 141°21'1313.2
2015-May-20 10:33N 36°03' E 141°12'1413.6
2015-May-20 09:30N 35°50' E 141°07'1313.5
2015-May-20 08:33N 35°37' E 141°04'2013.9
2015-May-20 07:09N 35°21' E 140°51'914.3
2015-May-20 06:32N 35°15' E 140°43'1414.1
2015-May-20 05:33N 35°06' E 140°30'1313.2
2015-May-20 04:33N 34°56' E 140°19'1312.3
2015-May-20 03:30N 34°46' E 140°09'5 4.3
2015-May-20 02:21N 34°42' E 140°05'1 0.6
2015-May-20 00:21N 34°43' E 140°06'8 9.6
2015-May-19 23:31N 34°51' E 140°06'5 4.4
2015-May-19 22:27N 34°56' E 140°06'1 0.7
2015-May-19 21:18N 34°55' E 140°06'1 0.9
2015-May-19 20:30N 34°55' E 140°06'1 1.0
2015-May-19 19:33N 34°54' E 140°05'1 1.0
2015-May-19 18:30N 34°53' E 140°05'1 1.3
2015-May-19 17:30N 34°52' E 140°04'1 1.2
2015-May-19 16:24N 34°51' E 140°03'1 1.1
2015-May-19 15:18N 34°50' E 140°03'1 1.2
2015-May-19 14:06N 34°48' E 140°02'1 1.1
2015-May-19 13:18N 34°48' E 140°01'1 1.0
2015-May-19 12:24N 34°47' E 140°00'1 1.2
2015-May-19 11:18N 34°46' E 139°59'2 0.9
2015-May-19 09:30N 34°45' E 139°58'1 0.8
2015-May-19 08:18N 34°45' E 139°57'1 1.0
2015-May-19 07:27N 34°44' E 139°56'3 1.3
2015-May-19 05:27N 34°43' E 139°53'6 1.4
2015-May-19 01:24N 34°42' E 139°46'3 2.3
2015-May-19 00:06N 34°42' E 139°43'1 2.5
2015-May-18 23:33N 34°43' E 139°41'10 8.9
2015-May-18 22:22N 34°51' E 139°34'2 1.8
2015-May-18 21:05N 34°49' E 139°35'1 1.4
2015-May-18 20:18N 34°48' E 139°36'5 1.1
2015-May-18 15:26N 34°44' E 139°39'1 0.8
2015-May-18 14:04N 34°44' E 139°41'5 9.4
2015-May-18 13:34N 34°49' E 139°41'1312.3
2015-May-18 12:31N 35°02' E 139°42'1111.9
2015-May-18 11:34N 35°12' E 139°46'1111.3
2015-May-18 10:34N 35°23' E 139°41'2 1.5
2015-May-18 09:33N 35°24' E 139°40'0 0.0
2015-May-18 08:33N 35°24' E 139°40'0 0.0
2015-May-18 07:33N 35°24' E 139°40'0 0.0
2015-May-18 06:33N 35°24' E 139°40'0 0.0
2015-May-18 05:33N 35°24' E 139°40'0 0.0
2015-May-18 04:33N 35°24' E 139°40'0 0.0
2015-May-18 03:33N 35°24' E 139°40'0 0.0
2015-May-18 02:33N 35°24' E 139°40'0 0.0
2015-May-18 01:33N 35°24' E 139°40'0 0.0
2015-May-18 00:33N 35°24' E 139°40'0 0.0
2015-May-17 23:33N 35°24' E 139°40'0 0.0
2015-May-17 22:33N 35°24' E 139°40'3 2.6
2015-May-17 21:33N 35°25' E 139°43'1 1.0
2015-May-17 20:33N 35°26' E 139°43'0 0.1
2015-May-17 19:33N 35°26' E 139°43'0 0.1
2015-May-17 18:33N 35°26' E 139°43'0 0.0
2015-May-17 17:33N 35°26' E 139°43'0 0.0
2015-May-17 16:33N 35°26' E 139°43'0 0.0
2015-May-17 15:33N 35°26' E 139°43'0 0.0
2015-May-17 14:33N 35°26' E 139°43'0 0.1
2015-May-17 13:33N 35°26' E 139°43'0 0.1
2015-May-17 12:33N 35°26' E 139°43'0 0.0
2015-May-17 11:33N 35°26' E 139°43'0 0.0
2015-May-17 10:33N 35°26' E 139°43'0 0.1
2015-May-17 09:33N 35°26' E 139°43'0 0.1
2015-May-17 08:33N 35°26' E 139°43'0 0.1
2015-May-17 07:33N 35°26' E 139°43'0 0.0
2015-May-17 06:33N 35°26' E 139°43'0 0.0
2015-May-17 05:33N 35°26' E 139°43'0 0.1
2015-May-17 04:33N 35°26' E 139°43'0 0.1
2015-May-17 03:33N 35°26' E 139°43'0 0.0
2015-May-17 02:33N 35°26' E 139°43'0 0.0
2015-May-17 01:33N 35°26' E 139°43'0 0.0
2015-May-17 00:33N 35°26' E 139°43'0 0.1
2015-May-16 23:33N 35°26' E 139°43'0 0.0
2015-May-16 22:33N 35°26' E 139°43'0 0.0
2015-May-16 21:33N 35°26' E 139°43'0 0.0
2015-May-16 20:33N 35°26' E 139°43'0 0.0
2015-May-16 19:33N 35°26' E 139°43'0 0.0
2015-May-16 18:33N 35°26' E 139°43'0 0.1
2015-May-16 17:33N 35°26' E 139°43'0 0.0
2015-May-16 16:30N 35°26' E 139°43'0 0.0
2015-May-16 15:30N 35°26' E 139°43'0 0.0
2015-May-16 14:33N 35°26' E 139°43'0 0.1
2015-May-16 13:33N 35°26' E 139°43'0 0.0
2015-May-16 12:33N 35°26' E 139°43'0 0.0
2015-May-16 11:33N 35°26' E 139°43'0 0.0
2015-May-16 10:33N 35°26' E 139°43'0 0.0
2015-May-16 09:33N 35°26' E 139°43'0 0.0
2015-May-16 08:30N 35°26' E 139°43'0 0.0
2015-May-16 07:33N 35°26' E 139°43'0 0.0
2015-May-16 06:33N 35°26' E 139°43'0 0.0
2015-May-16 05:33N 35°26' E 139°43'0 0.1
2015-May-16 04:33N 35°26' E 139°43'0 0.1
2015-May-16 03:33N 35°26' E 139°43'0 0.1
2015-May-16 02:33N 35°26' E 139°43'0 0.1
2015-May-16 01:33N 35°26' E 139°43'0 0.0
2015-May-16 00:33N 35°26' E 139°43'0 0.0
2015-May-15 23:33N 35°26' E 139°43'0 0.0
2015-May-15 22:33N 35°26' E 139°43'0 0.0
2015-May-15 21:33N 35°26' E 139°43'0 0.1
2015-May-15 20:33N 35°26' E 139°43'0 0.1
2015-May-15 19:33N 35°26' E 139°43'0 0.0
2015-May-15 18:33N 35°26' E 139°43'0 0.0
2015-May-15 17:33N 35°26' E 139°43'0 0.0
2015-May-15 16:33N 35°26' E 139°43'0 0.0
2015-May-15 15:33N 35°26' E 139°43'0 0.0
2015-May-15 14:33N 35°26' E 139°43'0 0.0
2015-May-15 13:30N 35°26' E 139°43'0 0.0
2015-May-15 12:33N 35°26' E 139°43'0 0.0
2015-May-15 11:33N 35°26' E 139°43'0 0.0
2015-May-15 10:33N 35°26' E 139°43'0 0.0
2015-May-15 09:33N 35°26' E 139°43'0 0.0
2015-May-15 08:33N 35°26' E 139°43'0 0.0
2015-May-15 07:33N 35°26' E 139°43'1 1.3
2015-May-15 06:33N 35°27' E 139°44'3 3.1
2015-May-15 05:33N 35°29' E 139°43'0 0.0
2015-May-15 04:31N 35°29' E 139°43'0 0.0
2015-May-15 03:31N 35°29' E 139°43'0 0.0
2015-May-15 02:31N 35°29' E 139°43'0 0.0
2015-May-15 01:31N 35°29' E 139°43'0 0.0
2015-May-15 00:32N 35°29' E 139°43'0 0.0
2015-May-14 23:31N 35°29' E 139°43'0 0.0
2015-May-14 22:31N 35°29' E 139°43'0 0.0
2015-May-14 21:31N 35°29' E 139°43'0 0.0
2015-May-14 20:31N 35°29' E 139°43'0 0.0
2015-May-14 19:28N 35°29' E 139°43'0 0.0
2015-May-14 18:31N 35°29' E 139°43'0 0.0
2015-May-14 17:31N 35°29' E 139°43'0 0.0
2015-May-14 16:31N 35°29' E 139°43'0 0.0
2015-May-14 15:31N 35°29' E 139°43'0 0.0
2015-May-14 14:31N 35°29' E 139°43'0 0.0
2015-May-14 13:31N 35°29' E 139°43'0 0.0
2015-May-14 12:31N 35°29' E 139°43'0 0.0
2015-May-14 11:31N 35°29' E 139°43'0 0.0
2015-May-14 10:31N 35°29' E 139°43'0 0.0
2015-May-14 09:31N 35°29' E 139°43'0 0.0
2015-May-14 08:31N 35°29' E 139°43'0 0.0
2015-May-14 07:31N 35°29' E 139°43'0 0.0
2015-May-14 06:25N 35°29' E 139°43'0 0.0
2015-May-14 05:32N 35°29' E 139°43'0 0.0
2015-May-14 04:31N 35°29' E 139°43'0 0.0
2015-May-14 03:31N 35°29' E 139°43'0 0.0
2015-May-14 02:31N 35°29' E 139°43'0 0.0
2015-May-14 01:31N 35°29' E 139°43'0 0.0
2015-May-14 00:31N 35°29' E 139°43'0 0.0
2015-May-13 23:31N 35°29' E 139°43'0 0.0
2015-May-13 22:31N 35°29' E 139°43'3 3.2
2015-May-13 21:33N 35°27' E 139°45'3 2.5
2015-May-13 20:31N 35°28' E 139°47'0 0.0
2015-May-13 19:31N 35°28' E 139°47'0 0.0
2015-May-13 18:25N 35°28' E 139°47'0 0.1
2015-May-13 17:34N 35°28' E 139°47'0 0.1
2015-May-13 16:30N 35°28' E 139°48'0 0.1
2015-May-13 15:34N 35°28' E 139°48'0 0.0
2015-May-13 14:33N 35°28' E 139°48'0 0.1
2015-May-13 13:33N 35°28' E 139°48'0 0.1
2015-May-13 12:34N 35°28' E 139°48'0 0.1
2015-May-13 11:30N 35°28' E 139°47'0 0.1
2015-May-13 10:27N 35°28' E 139°48'0 0.1
2015-May-13 09:31N 35°28' E 139°47'0 0.2
2015-May-13 08:34N 35°28' E 139°48'6 5.8
2015-May-13 07:34N 35°33' E 139°50'3 3.3
2015-May-13 06:33N 35°35' E 139°47'0 0.0
2015-May-13 04:33N 35°35' E 139°47'0 0.0
2015-May-13 03:24N 35°35' E 139°47'0 0.0
2015-May-13 02:21N 35°35' E 139°47'0 0.0
2015-May-13 01:33N 35°35' E 139°47'0 0.0
2015-May-13 00:24N 35°35' E 139°47'0 0.0
2015-May-12 23:33N 35°35' E 139°47'0 0.0
2015-May-12 22:09N 35°35' E 139°47'0 0.0
2015-May-12 20:30N 35°35' E 139°47'0 0.0
2015-May-12 19:24N 35°35' E 139°47'0 0.0
2015-May-12 18:24N 35°35' E 139°47'0 0.0
2015-May-12 17:33N 35°35' E 139°47'0 0.0
2015-May-12 16:27N 35°35' E 139°47'0 0.0
2015-May-12 15:24N 35°35' E 139°47'0 0.0
2015-May-12 14:30N 35°35' E 139°47'0 0.0
2015-May-12 13:33N 35°35' E 139°47'0 0.0
2015-May-12 12:24N 35°35' E 139°47'0 0.0
2015-May-12 11:30N 35°35' E 139°47'0 0.0
2015-May-12 10:30N 35°35' E 139°47'0 0.0
2015-May-12 09:33N 35°35' E 139°47'0 0.0
2015-May-12 08:27N 35°35' E 139°47'0 0.0
2015-May-12 07:30N 35°35' E 139°47'0 0.0
2015-May-12 06:33N 35°35' E 139°47'0 0.0
2015-May-12 05:15N 35°35' E 139°47'0 0.0
2015-May-12 04:33N 35°35' E 139°47'0 0.0
2015-May-12 03:33N 35°35' E 139°47'0 0.0
2015-May-12 02:33N 35°35' E 139°47'0 0.0
2015-May-12 01:30N 35°35' E 139°47'0 0.0
2015-May-12 00:30N 35°35' E 139°47'0 0.0
2015-May-11 23:30N 35°35' E 139°47'1 1.4
2015-May-11 22:33N 35°35' E 139°48'4 4.0
2015-May-11 21:28N 35°34' E 139°53'0 0.0
2015-May-11 20:29N 35°34' E 139°53'0 0.0
2015-May-11 19:31N 35°34' E 139°53'0 0.0
2015-May-11 18:29N 35°34' E 139°53'0 0.0
2015-May-11 17:30N 35°34' E 139°53'0 0.0
2015-May-11 16:30N 35°34' E 139°53'0 0.0
2015-May-11 15:33N 35°34' E 139°53'0 0.0
2015-May-11 14:25N 35°34' E 139°53'0 0.0
2015-May-11 13:25N 35°34' E 139°53'0 0.0
2015-May-11 12:27N 35°34' E 139°53'0 0.0
2015-May-11 11:33N 35°34' E 139°53'0 0.0
2015-May-11 10:27N 35°34' E 139°53'0 0.0
2015-May-11 09:15N 35°34' E 139°53'0 0.2
2015-May-11 08:33N 35°34' E 139°53'8 7.9
2015-May-11 07:32N 35°35' E 140°03'2 2.2
2015-May-11 06:29N 35°36' E 140°05'0 0.0
2015-May-11 05:23N 35°36' E 140°05'0 0.0
2015-May-11 04:29N 35°36' E 140°05'0 0.0
2015-May-11 03:29N 35°36' E 140°05'0 0.0
2015-May-11 02:29N 35°36' E 140°05'0 0.0
2015-May-11 01:29N 35°36' E 140°05'0 0.0
2015-May-11 00:29N 35°36' E 140°05'0 0.0
2015-May-10 23:29N 35°36' E 140°05'0 0.0
2015-May-10 22:23N 35°36' E 140°05'0 0.4
2015-May-10 21:31N 35°36' E 140°05'0 0.0
2015-May-10 20:19N 35°36' E 140°05'0 0.0
2015-May-10 19:13N 35°36' E 140°05'0 0.0
2015-May-10 18:31N 35°36' E 140°05'0 0.0
2015-May-10 17:25N 35°36' E 140°05'0 0.0
2015-May-10 16:25N 35°36' E 140°05'0 0.0
2015-May-10 15:19N 35°36' E 140°05'0 0.0
2015-May-10 14:31N 35°36' E 140°05'0 0.0
2015-May-10 13:31N 35°36' E 140°05'0 0.0
2015-May-10 12:31N 35°36' E 140°05'  
Track history (hours):
 
Tides and Currents Weather Stations Pressure Air Temp Water Temp Dewpoint Dewpoint Depression Visibility Wind Speed Wind Dir Waves Ship Positions

Bright Ocean

Last reported at 2015-May-20 12:29 UTC. Time now 2015-May-23 05:48 UTC.
Position N 36°22' E 141°35'.

Length 178 m; draft 6.5 m.

Type: Cargo ship. MMSI: 373816000.

Date/timePositionNaut miles runAvg speedWind from/ knotsBaromVisibWave heightAir tempDewpointWater temp
2015-May-20 12:29N 36°22' E 141°35'1414.6
2015-May-20 11:33N 36°14' E 141°21'1313.2
2015-May-20 10:33N 36°03' E 141°12'1413.6
2015-May-20 09:30N 35°50' E 141°07'1313.5
2015-May-20 08:33N 35°37' E 141°04'2013.9
2015-May-20 07:09N 35°21' E 140°51'914.3
2015-May-20 06:32N 35°15' E 140°43'1414.1
2015-May-20 05:33N 35°06' E 140°30'1313.2
2015-May-20 04:33N 34°56' E 140°19'1312.3
2015-May-20 03:30N 34°46' E 140°09'5 4.3
2015-May-20 02:21N 34°42' E 140°05'1 0.6
2015-May-20 00:21N 34°43' E 140°06'8 9.6
2015-May-19 23:31N 34°51' E 140°06'5 4.4
2015-May-19 22:27N 34°56' E 140°06'1 0.7
2015-May-19 21:18N 34°55' E 140°06'1 0.9
2015-May-19 20:30N 34°55' E 140°06'1 1.0
2015-May-19 19:33N 34°54' E 140°05'1 1.0
2015-May-19 18:30N 34°53' E 140°05'1 1.3
2015-May-19 17:30N 34°52' E 140°04'1 1.2
2015-May-19 16:24N 34°51' E 140°03'1 1.1
2015-May-19 15:18N 34°50' E 140°03'1 1.2
2015-May-19 14:06N 34°48' E 140°02'1 1.1
2015-May-19 13:18N 34°48' E 140°01'1 1.0
2015-May-19 12:24N 34°47' E 140°00'1 1.2
2015-May-19 11:18N 34°46' E 139°59'2 0.9
2015-May-19 09:30N 34°45' E 139°58'1 0.8
2015-May-19 08:18N 34°45' E 139°57'1 1.0
2015-May-19 07:27N 34°44' E 139°56'3 1.3
2015-May-19 05:27N 34°43' E 139°53'6 1.4
2015-May-19 01:24N 34°42' E 139°46'3 2.3
2015-May-19 00:06N 34°42' E 139°43'1 2.5
2015-May-18 23:33N 34°43' E 139°41'10 8.9
2015-May-18 22:22N 34°51' E 139°34'2 1.8
2015-May-18 21:05N 34°49' E 139°35'1 1.4
2015-May-18 20:18N 34°48' E 139°36'5 1.1
2015-May-18 15:26N 34°44' E 139°39'1 0.8
2015-May-18 14:04N 34°44' E 139°41'5 9.4
2015-May-18 13:34N 34°49' E 139°41'1312.3
2015-May-18 12:31N 35°02' E 139°42'1111.9
2015-May-18 11:34N 35°12' E 139°46'1111.3
2015-May-18 10:34N 35°23' E 139°41'2 1.5
2015-May-18 09:33N 35°24' E 139°40'0 0.0
2015-May-18 08:33N 35°24' E 139°40'0 0.0
2015-May-18 07:33N 35°24' E 139°40'0 0.0
2015-May-18 06:33N 35°24' E 139°40'0 0.0
2015-May-18 05:33N 35°24' E 139°40'0 0.0
2015-May-18 04:33N 35°24' E 139°40'0 0.0
2015-May-18 03:33N 35°24' E 139°40'0 0.0
2015-May-18 02:33N 35°24' E 139°40'0 0.0
2015-May-18 01:33N 35°24' E 139°40'0 0.0
2015-May-18 00:33N 35°24' E 139°40'0 0.0
2015-May-17 23:33N 35°24' E 139°40'0 0.0
2015-May-17 22:33N 35°24' E 139°40'3 2.6
2015-May-17 21:33N 35°25' E 139°43'1 1.0
2015-May-17 20:33N 35°26' E 139°43'0 0.1
2015-May-17 19:33N 35°26' E 139°43'0 0.1
2015-May-17 18:33N 35°26' E 139°43'0 0.0
2015-May-17 17:33N 35°26' E 139°43'0 0.0
2015-May-17 16:33N 35°26' E 139°43'0 0.0
2015-May-17 15:33N 35°26' E 139°43'0 0.0
2015-May-17 14:33N 35°26' E 139°43'0 0.1
2015-May-17 13:33N 35°26' E 139°43'0 0.1
2015-May-17 12:33N 35°26' E 139°43'0 0.0
2015-May-17 11:33N 35°26' E 139°43'0 0.0
2015-May-17 10:33N 35°26' E 139°43'0 0.1
2015-May-17 09:33N 35°26' E 139°43'0 0.1
2015-May-17 08:33N 35°26' E 139°43'0 0.1
2015-May-17 07:33N 35°26' E 139°43'0 0.0
2015-May-17 06:33N 35°26' E 139°43'0 0.0
2015-May-17 05:33N 35°26' E 139°43'0 0.1
2015-May-17 04:33N 35°26' E 139°43'0 0.1
2015-May-17 03:33N 35°26' E 139°43'0 0.0
2015-May-17 02:33N 35°26' E 139°43'0 0.0
2015-May-17 01:33N 35°26' E 139°43'0 0.0
2015-May-17 00:33N 35°26' E 139°43'0 0.1
2015-May-16 23:33N 35°26' E 139°43'0 0.0
2015-May-16 22:33N 35°26' E 139°43'0 0.0
2015-May-16 21:33N 35°26' E 139°43'0 0.0
2015-May-16 20:33N 35°26' E 139°43'0 0.0
2015-May-16 19:33N 35°26' E 139°43'0 0.0
2015-May-16 18:33N 35°26' E 139°43'0 0.1
2015-May-16 17:33N 35°26' E 139°43'0 0.0
2015-May-16 16:30N 35°26' E 139°43'0 0.0
2015-May-16 15:30N 35°26' E 139°43'0 0.0
2015-May-16 14:33N 35°26' E 139°43'0 0.1
2015-May-16 13:33N 35°26' E 139°43'0 0.0
2015-May-16 12:33N 35°26' E 139°43'0 0.0
2015-May-16 11:33N 35°26' E 139°43'0 0.0
2015-May-16 10:33N 35°26' E 139°43'0 0.0
2015-May-16 09:33N 35°26' E 139°43'0 0.0
2015-May-16 08:30N 35°26' E 139°43'0 0.0
2015-May-16 07:33N 35°26' E 139°43'0 0.0
2015-May-16 06:33N 35°26' E 139°43'0 0.0
2015-May-16 05:33N 35°26' E 139°43'0 0.1
2015-May-16 04:33N 35°26' E 139°43'0 0.1
2015-May-16 03:33N 35°26' E 139°43'0 0.1
2015-May-16 02:33N 35°26' E 139°43'0 0.1
2015-May-16 01:33N 35°26' E 139°43'0 0.0
2015-May-16 00:33N 35°26' E 139°43'0 0.0
2015-May-15 23:33N 35°26' E 139°43'0 0.0
2015-May-15 22:33N 35°26' E 139°43'0 0.0
2015-May-15 21:33N 35°26' E 139°43'0 0.1
2015-May-15 20:33N 35°26' E 139°43'0 0.1
2015-May-15 19:33N 35°26' E 139°43'0 0.0
2015-May-15 18:33N 35°26' E 139°43'0 0.0
2015-May-15 17:33N 35°26' E 139°43'0 0.0
2015-May-15 16:33N 35°26' E 139°43'0 0.0
2015-May-15 15:33N 35°26' E 139°43'0 0.0
2015-May-15 14:33N 35°26' E 139°43'0 0.0
2015-May-15 13:30N 35°26' E 139°43'0 0.0
2015-May-15 12:33N 35°26' E 139°43'0 0.0
2015-May-15 11:33N 35°26' E 139°43'0 0.0
2015-May-15 10:33N 35°26' E 139°43'0 0.0
2015-May-15 09:33N 35°26' E 139°43'0 0.0
2015-May-15 08:33N 35°26' E 139°43'0 0.0
2015-May-15 07:33N 35°26' E 139°43'1 1.3
2015-May-15 06:33N 35°27' E 139°44'3 3.1
2015-May-15 05:33N 35°29' E 139°43'0 0.0
2015-May-15 04:31N 35°29' E 139°43'0 0.0
2015-May-15 03:31N 35°29' E 139°43'0 0.0
2015-May-15 02:31N 35°29' E 139°43'0 0.0
2015-May-15 01:31N 35°29' E 139°43'0 0.0
2015-May-15 00:32N 35°29' E 139°43'0 0.0
2015-May-14 23:31N 35°29' E 139°43'0 0.0
2015-May-14 22:31N 35°29' E 139°43'0 0.0
2015-May-14 21:31N 35°29' E 139°43'0 0.0
2015-May-14 20:31N 35°29' E 139°43'0 0.0
2015-May-14 19:28N 35°29' E 139°43'0 0.0
2015-May-14 18:31N 35°29' E 139°43'0 0.0
2015-May-14 17:31N 35°29' E 139°43'0 0.0
2015-May-14 16:31N 35°29' E 139°43'0 0.0
2015-May-14 15:31N 35°29' E 139°43'0 0.0
2015-May-14 14:31N 35°29' E 139°43'0 0.0
2015-May-14 13:31N 35°29' E 139°43'0 0.0
2015-May-14 12:31N 35°29' E 139°43'0 0.0
2015-May-14 11:31N 35°29' E 139°43'0 0.0
2015-May-14 10:31N 35°29' E 139°43'0 0.0
2015-May-14 09:31N 35°29' E 139°43'0 0.0
2015-May-14 08:31N 35°29' E 139°43'0 0.0
2015-May-14 07:31N 35°29' E 139°43'0 0.0
2015-May-14 06:25N 35°29' E 139°43'0 0.0
2015-May-14 05:32N 35°29' E 139°43'0 0.0
2015-May-14 04:31N 35°29' E 139°43'0 0.0
2015-May-14 03:31N 35°29' E 139°43'0 0.0
2015-May-14 02:31N 35°29' E 139°43'0 0.0
2015-May-14 01:31N 35°29' E 139°43'0 0.0
2015-May-14 00:31N 35°29' E 139°43'0 0.0
2015-May-13 23:31N 35°29' E 139°43'0 0.0
2015-May-13 22:31N 35°29' E 139°43'3 3.2
2015-May-13 21:33N 35°27' E 139°45'3 2.5
2015-May-13 20:31N 35°28' E 139°47'0 0.0
2015-May-13 19:31N 35°28' E 139°47'0 0.0
2015-May-13 18:25N 35°28' E 139°47'0 0.1
2015-May-13 17:34N 35°28' E 139°47'0 0.1
2015-May-13 16:30N 35°28' E 139°48'0 0.1
2015-May-13 15:34N 35°28' E 139°48'0 0.0
2015-May-13 14:33N 35°28' E 139°48'0 0.1
2015-May-13 13:33N 35°28' E 139°48'0 0.1
2015-May-13 12:34N 35°28' E 139°48'0 0.1
2015-May-13 11:30N 35°28' E 139°47'0 0.1
2015-May-13 10:27N 35°28' E 139°48'0 0.1
2015-May-13 09:31N 35°28' E 139°47'0 0.2
2015-May-13 08:34N 35°28' E 139°48'6 5.8
2015-May-13 07:34N 35°33' E 139°50'3 3.3
2015-May-13 06:33N 35°35' E 139°47'0 0.0
2015-May-13 04:33N 35°35' E 139°47'0 0.0
2015-May-13 03:24N 35°35' E 139°47'0 0.0
2015-May-13 02:21N 35°35' E 139°47'0 0.0
2015-May-13 01:33N 35°35' E 139°47'0 0.0
2015-May-13 00:24N 35°35' E 139°47'0 0.0
2015-May-12 23:33N 35°35' E 139°47'0 0.0
2015-May-12 22:09N 35°35' E 139°47'0 0.0
2015-May-12 20:30N 35°35' E 139°47'0 0.0
2015-May-12 19:24N 35°35' E 139°47'0 0.0
2015-May-12 18:24N 35°35' E 139°47'0 0.0
2015-May-12 17:33N 35°35' E 139°47'0 0.0
2015-May-12 16:27N 35°35' E 139°47'0 0.0
2015-May-12 15:24N 35°35' E 139°47'0 0.0
2015-May-12 14:30N 35°35' E 139°47'0 0.0
2015-May-12 13:33N 35°35' E 139°47'0 0.0
2015-May-12 12:24N 35°35' E 139°47'0 0.0
2015-May-12 11:30N 35°35' E 139°47'0 0.0
2015-May-12 10:30N 35°35' E 139°47'0 0.0
2015-May-12 09:33N 35°35' E 139°47'0 0.0
2015-May-12 08:27N 35°35' E 139°47'0 0.0
2015-May-12 07:30N 35°35' E 139°47'0 0.0
2015-May-12 06:33N 35°35' E 139°47'0 0.0
2015-May-12 05:15N 35°35' E 139°47'0 0.0
2015-May-12 04:33N 35°35' E 139°47'0 0.0
2015-May-12 03:33N 35°35' E 139°47'0 0.0
2015-May-12 02:33N 35°35' E 139°47'0 0.0
2015-May-12 01:30N 35°35' E 139°47'0 0.0
2015-May-12 00:30N 35°35' E 139°47'0 0.0
2015-May-11 23:30N 35°35' E 139°47'1 1.4
2015-May-11 22:33N 35°35' E 139°48'4 4.0
2015-May-11 21:28N 35°34' E 139°53'0 0.0
2015-May-11 20:29N 35°34' E 139°53'0 0.0
2015-May-11 19:31N 35°34' E 139°53'0 0.0
2015-May-11 18:29N 35°34' E 139°53'0 0.0
2015-May-11 17:30N 35°34' E 139°53'0 0.0
2015-May-11 16:30N 35°34' E 139°53'0 0.0
2015-May-11 15:33N 35°34' E 139°53'0 0.0
2015-May-11 14:25N 35°34' E 139°53'0 0.0
2015-May-11 13:25N 35°34' E 139°53'0 0.0
2015-May-11 12:27N 35°34' E 139°53'0 0.0
2015-May-11 11:33N 35°34' E 139°53'0 0.0
2015-May-11 10:27N 35°34' E 139°53'0 0.0
2015-May-11 09:15N 35°34' E 139°53'0 0.2
2015-May-11 08:33N 35°34' E 139°53'8 7.9
2015-May-11 07:32N 35°35' E 140°03'2 2.2
2015-May-11 06:29N 35°36' E 140°05'0 0.0
2015-May-11 05:23N 35°36' E 140°05'0 0.0
2015-May-11 04:29N 35°36' E 140°05'0 0.0
2015-May-11 03:29N 35°36' E 140°05'0 0.0
2015-May-11 02:29N 35°36' E 140°05'0 0.0
2015-May-11 01:29N 35°36' E 140°05'0 0.0
2015-May-11 00:29N 35°36' E 140°05'0 0.0
2015-May-10 23:29N 35°36' E 140°05'0 0.0
2015-May-10 22:23N 35°36' E 140°05'0 0.4
2015-May-10 21:31N 35°36' E 140°05'0 0.0
2015-May-10 20:19N 35°36' E 140°05'0 0.0
2015-May-10 19:13N 35°36' E 140°05'0 0.0
2015-May-10 18:31N 35°36' E 140°05'0 0.0
2015-May-10 17:25N 35°36' E 140°05'0 0.0
2015-May-10 16:25N 35°36' E 140°05'0 0.0
2015-May-10 15:19N 35°36' E 140°05'0 0.0
2015-May-10 14:31N 35°36' E 140°05'0 0.0
2015-May-10 13:31N 35°36' E 140°05'0 0.0
2015-May-10 12:31N 35°36' E 140°05'  

Dump ship's entire track history